sensor_id;sensor_type;location;lat;lon;timestamp;P1;durP1;ratioP1;P2;durP2;ratioP2
20776;SDS011;10548;47.504;8.248;2022-09-21T00:01:16;11.03;;;1.97;;
20776;SDS011;10548;47.504;8.248;2022-09-21T00:03:46;5.63;;;2.23;;
20776;SDS011;10548;47.504;8.248;2022-09-21T00:06:17;5.60;;;2.00;;
20776;SDS011;10548;47.504;8.248;2022-09-21T00:08:45;8.17;;;2.30;;
20776;SDS011;10548;47.504;8.248;2022-09-21T00:11:20;7.80;;;2.20;;
20776;SDS011;10548;47.504;8.248;2022-09-21T00:13:53;8.07;;;2.40;;
20776;SDS011;10548;47.504;8.248;2022-09-21T00:16:21;4.77;;;1.93;;
20776;SDS011;10548;47.504;8.248;2022-09-21T00:18:49;3.50;;;1.70;;
20776;SDS011;10548;47.504;8.248;2022-09-21T00:21:17;4.73;;;1.97;;
20776;SDS011;10548;47.504;8.248;2022-09-21T00:23:44;4.37;;;2.07;;
20776;SDS011;10548;47.504;8.248;2022-09-21T00:26:16;5.13;;;2.27;;
20776;SDS011;10548;47.504;8.248;2022-09-21T00:28:45;10.57;;;2.30;;
20776;SDS011;10548;47.504;8.248;2022-09-21T00:31:14;5.57;;;2.17;;
20776;SDS011;10548;47.504;8.248;2022-09-21T00:33:43;4.27;;;2.23;;
20776;SDS011;10548;47.504;8.248;2022-09-21T00:36:15;6.90;;;1.77;;
20776;SDS011;10548;47.504;8.248;2022-09-21T00:38:44;6.00;;;2.27;;
20776;SDS011;10548;47.504;8.248;2022-09-21T00:41:14;5.50;;;2.30;;
20776;SDS011;10548;47.504;8.248;2022-09-21T00:43:44;7.80;;;2.27;;
20776;SDS011;10548;47.504;8.248;2022-09-21T00:46:24;10.57;;;2.27;;
20776;SDS011;10548;47.504;8.248;2022-09-21T00:48:56;4.90;;;1.90;;
20776;SDS011;10548;47.504;8.248;2022-09-21T00:51:24;8.27;;;2.27;;
20776;SDS011;10548;47.504;8.248;2022-09-21T00:53:52;4.83;;;1.90;;
20776;SDS011;10548;47.504;8.248;2022-09-21T00:56:26;6.50;;;2.17;;
20776;SDS011;10548;47.504;8.248;2022-09-21T00:58:53;4.70;;;2.50;;
20776;SDS011;10548;47.504;8.248;2022-09-21T01:01:21;5.67;;;2.40;;
20776;SDS011;10548;47.504;8.248;2022-09-21T01:03:50;10.03;;;2.90;;
20776;SDS011;10548;47.504;8.248;2022-09-21T01:06:19;5.43;;;2.43;;
20776;SDS011;10548;47.504;8.248;2022-09-21T01:08:48;4.83;;;2.07;;
20776;SDS011;10548;47.504;8.248;2022-09-21T01:11:29;5.90;;;2.20;;
20776;SDS011;10548;47.504;8.248;2022-09-21T01:17:50;13.80;;;2.30;;
20776;SDS011;10548;47.504;8.248;2022-09-21T01:20:39;6.90;;;2.50;;
20776;SDS011;10548;47.504;8.248;2022-09-21T01:29:32;8.03;;;2.37;;
20776;SDS011;10548;47.504;8.248;2022-09-21T01:32:10;11.07;;;2.60;;
20776;SDS011;10548;47.504;8.248;2022-09-21T01:34:50;9.00;;;2.50;;
20776;SDS011;10548;47.504;8.248;2022-09-21T01:37:31;7.27;;;2.57;;
20776;SDS011;10548;47.504;8.248;2022-09-21T01:40:22;4.87;;;2.30;;
20776;SDS011;10548;47.504;8.248;2022-09-21T01:43:01;5.53;;;2.40;;
20776;SDS011;10548;47.504;8.248;2022-09-21T01:45:31;6.40;;;2.77;;
20776;SDS011;10548;47.504;8.248;2022-09-21T01:48:03;3.37;;;2.17;;
20776;SDS011;10548;47.504;8.248;2022-09-21T01:50:33;6.00;;;2.40;;
20776;SDS011;10548;47.504;8.248;2022-09-21T01:53:09;6.30;;;2.67;;
20776;SDS011;10548;47.504;8.248;2022-09-21T01:55:43;8.33;;;2.50;;
20776;SDS011;10548;47.504;8.248;2022-09-21T01:58:20;5.33;;;2.63;;
20776;SDS011;10548;47.504;8.248;2022-09-21T02:00:55;4.07;;;2.53;;
20776;SDS011;10548;47.504;8.248;2022-09-21T02:03:28;5.20;;;2.33;;
20776;SDS011;10548;47.504;8.248;2022-09-21T02:06:02;5.20;;;2.50;;
20776;SDS011;10548;47.504;8.248;2022-09-21T02:08:31;12.40;;;2.90;;
20776;SDS011;10548;47.504;8.248;2022-09-21T02:10:59;7.47;;;2.17;;
20776;SDS011;10548;47.504;8.248;2022-09-21T02:13:29;7.00;;;3.17;;
20776;SDS011;10548;47.504;8.248;2022-09-21T02:16:12;12.70;;;3.43;;
20776;SDS011;10548;47.504;8.248;2022-09-21T02:19:20;3.80;;;2.33;;
20776;SDS011;10548;47.504;8.248;2022-09-21T02:21:58;12.33;;;2.70;;
20776;SDS011;10548;47.504;8.248;2022-09-21T02:25:08;4.77;;;2.53;;
20776;SDS011;10548;47.504;8.248;2022-09-21T02:28:00;4.83;;;2.90;;
20776;SDS011;10548;47.504;8.248;2022-09-21T02:30:36;7.97;;;2.47;;
20776;SDS011;10548;47.504;8.248;2022-09-21T02:36:14;6.73;;;2.87;;
20776;SDS011;10548;47.504;8.248;2022-09-21T02:39:15;5.87;;;2.53;;
20776;SDS011;10548;47.504;8.248;2022-09-21T02:41:53;7.00;;;2.93;;
20776;SDS011;10548;47.504;8.248;2022-09-21T02:44:35;9.57;;;2.90;;
20776;SDS011;10548;47.504;8.248;2022-09-21T02:50:05;9.57;;;3.30;;
20776;SDS011;10548;47.504;8.248;2022-09-21T02:52:36;6.37;;;2.90;;
20776;SDS011;10548;47.504;8.248;2022-09-21T02:55:06;7.93;;;2.73;;
20776;SDS011;10548;47.504;8.248;2022-09-21T02:57:35;11.07;;;3.30;;
20776;SDS011;10548;47.504;8.248;2022-09-21T03:00:04;5.87;;;2.80;;
20776;SDS011;10548;47.504;8.248;2022-09-21T03:02:38;6.87;;;3.37;;
20776;SDS011;10548;47.504;8.248;2022-09-21T03:05:07;6.27;;;2.90;;
20776;SDS011;10548;47.504;8.248;2022-09-21T03:07:35;6.90;;;2.90;;
20776;SDS011;10548;47.504;8.248;2022-09-21T03:10:03;8.37;;;2.97;;
20776;SDS011;10548;47.504;8.248;2022-09-21T03:12:31;7.63;;;2.80;;
20776;SDS011;10548;47.504;8.248;2022-09-21T03:14:58;5.27;;;2.67;;
20776;SDS011;10548;47.504;8.248;2022-09-21T03:17:25;5.13;;;2.50;;
20776;SDS011;10548;47.504;8.248;2022-09-21T03:19:53;5.33;;;2.67;;
20776;SDS011;10548;47.504;8.248;2022-09-21T03:22:21;5.53;;;2.70;;
20776;SDS011;10548;47.504;8.248;2022-09-21T03:24:48;7.43;;;3.33;;
20776;SDS011;10548;47.504;8.248;2022-09-21T03:27:17;11.73;;;3.53;;
20776;SDS011;10548;47.504;8.248;2022-09-21T03:29:46;9.07;;;3.33;;
20776;SDS011;10548;47.504;8.248;2022-09-21T03:32:13;8.27;;;2.93;;
20776;SDS011;10548;47.504;8.248;2022-09-21T03:34:41;5.97;;;3.17;;
20776;SDS011;10548;47.504;8.248;2022-09-21T03:37:08;6.07;;;3.07;;
20776;SDS011;10548;47.504;8.248;2022-09-21T03:39:36;8.87;;;3.47;;
20776;SDS011;10548;47.504;8.248;2022-09-21T03:42:03;7.40;;;2.90;;
20776;SDS011;10548;47.504;8.248;2022-09-21T03:44:30;8.10;;;2.63;;
20776;SDS011;10548;47.504;8.248;2022-09-21T03:46:57;9.27;;;3.80;;
20776;SDS011;10548;47.504;8.248;2022-09-21T03:49:24;10.23;;;3.17;;
20776;SDS011;10548;47.504;8.248;2022-09-21T03:51:52;5.63;;;3.00;;
20776;SDS011;10548;47.504;8.248;2022-09-21T03:54:19;9.83;;;3.17;;
20776;SDS011;10548;47.504;8.248;2022-09-21T03:56:46;11.57;;;3.17;;
20776;SDS011;10548;47.504;8.248;2022-09-21T03:59:13;10.63;;;3.73;;
20776;SDS011;10548;47.504;8.248;2022-09-21T04:01:40;7.67;;;3.23;;
20776;SDS011;10548;47.504;8.248;2022-09-21T04:04:08;10.87;;;3.10;;
20776;SDS011;10548;47.504;8.248;2022-09-21T04:06:35;10.20;;;3.50;;
20776;SDS011;10548;47.504;8.248;2022-09-21T04:09:02;7.77;;;3.63;;
20776;SDS011;10548;47.504;8.248;2022-09-21T04:11:29;7.33;;;3.40;;
20776;SDS011;10548;47.504;8.248;2022-09-21T04:13:58;9.87;;;3.97;;
20776;SDS011;10548;47.504;8.248;2022-09-21T04:16:25;6.23;;;3.27;;
20776;SDS011;10548;47.504;8.248;2022-09-21T04:18:53;4.80;;;3.57;;
20776;SDS011;10548;47.504;8.248;2022-09-21T04:21:20;8.13;;;3.77;;
20776;SDS011;10548;47.504;8.248;2022-09-21T04:23:47;7.53;;;3.50;;
20776;SDS011;10548;47.504;8.248;2022-09-21T04:26:28;6.97;;;3.93;;
20776;SDS011;10548;47.504;8.248;2022-09-21T04:28:57;8.07;;;3.97;;
20776;SDS011;10548;47.504;8.248;2022-09-21T04:31:25;9.40;;;3.77;;
20776;SDS011;10548;47.504;8.248;2022-09-21T04:33:53;8.00;;;3.90;;
20776;SDS011;10548;47.504;8.248;2022-09-21T04:36:23;7.77;;;3.27;;
20776;SDS011;10548;47.504;8.248;2022-09-21T04:38:51;6.90;;;3.70;;
20776;SDS011;10548;47.504;8.248;2022-09-21T04:41:18;9.83;;;3.30;;
20776;SDS011;10548;47.504;8.248;2022-09-21T04:43:46;7.90;;;4.27;;
20776;SDS011;10548;47.504;8.248;2022-09-21T04:46:15;13.10;;;3.90;;
20776;SDS011;10548;47.504;8.248;2022-09-21T04:48:44;8.20;;;3.70;;
20776;SDS011;10548;47.504;8.248;2022-09-21T04:51:12;6.97;;;3.77;;
20776;SDS011;10548;47.504;8.248;2022-09-21T04:53:40;9.00;;;3.47;;
20776;SDS011;10548;47.504;8.248;2022-09-21T04:56:08;7.60;;;4.47;;
20776;SDS011;10548;47.504;8.248;2022-09-21T04:58:38;9.13;;;4.70;;
20776;SDS011;10548;47.504;8.248;2022-09-21T05:01:05;9.77;;;4.83;;
20776;SDS011;10548;47.504;8.248;2022-09-21T05:03:33;15.13;;;4.30;;
20776;SDS011;10548;47.504;8.248;2022-09-21T05:06:00;8.17;;;4.37;;
20776;SDS011;10548;47.504;8.248;2022-09-21T05:08:27;8.67;;;4.20;;
20776;SDS011;10548;47.504;8.248;2022-09-21T05:11:14;12.67;;;4.80;;
20776;SDS011;10548;47.504;8.248;2022-09-21T05:13:46;10.83;;;4.00;;
20776;SDS011;10548;47.504;8.248;2022-09-21T05:16:14;9.40;;;3.80;;
20776;SDS011;10548;47.504;8.248;2022-09-21T05:18:42;6.07;;;3.60;;
20776;SDS011;10548;47.504;8.248;2022-09-21T05:21:10;10.97;;;4.73;;
20776;SDS011;10548;47.504;8.248;2022-09-21T05:23:39;8.37;;;4.63;;
20776;SDS011;10548;47.504;8.248;2022-09-21T05:26:06;10.23;;;4.37;;
20776;SDS011;10548;47.504;8.248;2022-09-21T05:28:33;7.20;;;4.33;;
20776;SDS011;10548;47.504;8.248;2022-09-21T05:31:26;13.10;;;4.40;;
20776;SDS011;10548;47.504;8.248;2022-09-21T05:34:02;9.80;;;4.57;;
20776;SDS011;10548;47.504;8.248;2022-09-21T05:38:05;6.90;;;3.77;;
20776;SDS011;10548;47.504;8.248;2022-09-21T05:40:19;7.47;;;3.50;;
20776;SDS011;10548;47.504;8.248;2022-09-21T05:42:48;9.37;;;4.13;;
20776;SDS011;10548;47.504;8.248;2022-09-21T05:45:16;9.13;;;3.83;;
20776;SDS011;10548;47.504;8.248;2022-09-21T05:47:55;7.43;;;3.90;;
20776;SDS011;10548;47.504;8.248;2022-09-21T05:50:53;6.90;;;3.57;;
20776;SDS011;10548;47.504;8.248;2022-09-21T05:53:33;6.67;;;3.70;;
20776;SDS011;10548;47.504;8.248;2022-09-21T05:56:12;5.90;;;3.63;;
20776;SDS011;10548;47.504;8.248;2022-09-21T06:06:04;7.27;;;3.77;;
20776;SDS011;10548;47.504;8.248;2022-09-21T06:08:33;6.00;;;3.47;;
20776;SDS011;10548;47.504;8.248;2022-09-21T06:11:00;6.27;;;3.40;;
20776;SDS011;10548;47.504;8.248;2022-09-21T06:13:27;6.73;;;3.50;;
20776;SDS011;10548;47.504;8.248;2022-09-21T06:15:54;6.50;;;3.60;;
20776;SDS011;10548;47.504;8.248;2022-09-21T06:18:22;8.97;;;3.90;;
20776;SDS011;10548;47.504;8.248;2022-09-21T06:20:49;7.80;;;3.97;;
20776;SDS011;10548;47.504;8.248;2022-09-21T06:23:16;11.87;;;3.93;;
20776;SDS011;10548;47.504;8.248;2022-09-21T06:25:44;8.20;;;3.30;;
20776;SDS011;10548;47.504;8.248;2022-09-21T06:28:22;10.87;;;3.73;;
20776;SDS011;10548;47.504;8.248;2022-09-21T06:30:50;6.37;;;3.43;;
20776;SDS011;10548;47.504;8.248;2022-09-21T06:33:18;7.20;;;3.40;;
20776;SDS011;10548;47.504;8.248;2022-09-21T06:35:52;6.87;;;3.60;;
20776;SDS011;10548;47.504;8.248;2022-09-21T06:38:21;6.57;;;3.57;;
20776;SDS011;10548;47.504;8.248;2022-09-21T06:40:49;11.77;;;3.60;;
20776;SDS011;10548;47.504;8.248;2022-09-21T06:43:16;11.97;;;3.13;;
20776;SDS011;10548;47.504;8.248;2022-09-21T06:45:51;7.03;;;3.20;;
20776;SDS011;10548;47.504;8.248;2022-09-21T06:48:22;8.33;;;3.13;;
20776;SDS011;10548;47.504;8.248;2022-09-21T06:50:50;7.97;;;3.33;;
20776;SDS011;10548;47.504;8.248;2022-09-21T06:53:17;6.37;;;3.13;;
20776;SDS011;10548;47.504;8.248;2022-09-21T06:55:45;10.60;;;3.53;;
20776;SDS011;10548;47.504;8.248;2022-09-21T06:58:12;5.27;;;2.80;;
20776;SDS011;10548;47.504;8.248;2022-09-21T07:00:39;6.40;;;3.23;;
20776;SDS011;10548;47.504;8.248;2022-09-21T07:03:08;7.17;;;3.43;;
20776;SDS011;10548;47.504;8.248;2022-09-21T07:05:38;8.13;;;3.87;;
20776;SDS011;10548;47.504;8.248;2022-09-21T07:08:05;7.53;;;3.90;;
20776;SDS011;10548;47.504;8.248;2022-09-21T07:10:52;8.47;;;4.23;;
20776;SDS011;10548;47.504;8.248;2022-09-21T07:13:22;10.43;;;4.20;;
20776;SDS011;10548;47.504;8.248;2022-09-21T07:15:49;5.60;;;3.57;;
20776;SDS011;10548;47.504;8.248;2022-09-21T07:18:18;10.70;;;3.77;;
20776;SDS011;10548;47.504;8.248;2022-09-21T07:20:46;10.00;;;3.20;;
20776;SDS011;10548;47.504;8.248;2022-09-21T07:23:15;6.80;;;3.40;;
20776;SDS011;10548;47.504;8.248;2022-09-21T07:25:44;10.03;;;3.60;;
20776;SDS011;10548;47.504;8.248;2022-09-21T07:28:15;3.70;;;2.80;;
20776;SDS011;10548;47.504;8.248;2022-09-21T07:30:42;7.17;;;3.13;;
20776;SDS011;10548;47.504;8.248;2022-09-21T07:33:10;8.23;;;3.07;;
20776;SDS011;10548;47.504;8.248;2022-09-21T07:35:37;5.77;;;3.13;;
20776;SDS011;10548;47.504;8.248;2022-09-21T07:38:05;7.30;;;3.00;;
20776;SDS011;10548;47.504;8.248;2022-09-21T07:40:33;6.83;;;2.30;;
20776;SDS011;10548;47.504;8.248;2022-09-21T07:43:01;8.10;;;3.07;;
20776;SDS011;10548;47.504;8.248;2022-09-21T07:45:28;6.20;;;2.90;;
20776;SDS011;10548;47.504;8.248;2022-09-21T07:48:02;16.83;;;3.67;;
20776;SDS011;10548;47.504;8.248;2022-09-21T07:50:30;7.93;;;3.10;;
20776;SDS011;10548;47.504;8.248;2022-09-21T07:53:00;11.63;;;3.00;;
20776;SDS011;10548;47.504;8.248;2022-09-21T07:55:27;9.53;;;3.17;;
20776;SDS011;10548;47.504;8.248;2022-09-21T07:57:55;9.97;;;3.10;;
20776;SDS011;10548;47.504;8.248;2022-09-21T08:00:40;6.20;;;2.70;;
20776;SDS011;10548;47.504;8.248;2022-09-21T08:03:08;12.80;;;2.60;;
20776;SDS011;10548;47.504;8.248;2022-09-21T08:05:35;5.90;;;2.90;;
20776;SDS011;10548;47.504;8.248;2022-09-21T08:08:02;4.77;;;2.23;;
20776;SDS011;10548;47.504;8.248;2022-09-21T08:10:29;10.40;;;2.53;;
20776;SDS011;10548;47.504;8.248;2022-09-21T08:12:57;22.10;;;3.30;;
20776;SDS011;10548;47.504;8.248;2022-09-21T08:15:25;5.73;;;2.50;;
20776;SDS011;10548;47.504;8.248;2022-09-21T08:18:12;6.43;;;2.37;;
20776;SDS011;10548;47.504;8.248;2022-09-21T08:20:40;5.57;;;2.10;;
20776;SDS011;10548;47.504;8.248;2022-09-21T08:23:08;5.70;;;2.17;;
20776;SDS011;10548;47.504;8.248;2022-09-21T08:25:35;7.60;;;2.33;;
20776;SDS011;10548;47.504;8.248;2022-09-21T08:28:03;7.43;;;1.93;;
20776;SDS011;10548;47.504;8.248;2022-09-21T08:30:35;8.20;;;2.13;;
20776;SDS011;10548;47.504;8.248;2022-09-21T08:33:02;7.37;;;2.20;;
20776;SDS011;10548;47.504;8.248;2022-09-21T08:35:32;8.30;;;2.43;;
20776;SDS011;10548;47.504;8.248;2022-09-21T08:38:00;9.73;;;2.43;;
20776;SDS011;10548;47.504;8.248;2022-09-21T08:40:27;7.43;;;2.00;;
20776;SDS011;10548;47.504;8.248;2022-09-21T08:42:56;3.77;;;1.83;;
20776;SDS011;10548;47.504;8.248;2022-09-21T08:45:28;4.13;;;1.70;;
20776;SDS011;10548;47.504;8.248;2022-09-21T08:47:57;6.80;;;2.27;;
20776;SDS011;10548;47.504;8.248;2022-09-21T08:53:25;5.93;;;2.03;;
20776;SDS011;10548;47.504;8.248;2022-09-21T08:55:54;12.77;;;2.43;;
20776;SDS011;10548;47.504;8.248;2022-09-21T08:58:26;8.50;;;2.27;;
20776;SDS011;10548;47.504;8.248;2022-09-21T09:03:44;6.03;;;2.07;;
20776;SDS011;10548;47.504;8.248;2022-09-21T09:06:33;5.57;;;2.10;;
20776;SDS011;10548;47.504;8.248;2022-09-21T09:10:37;9.03;;;2.17;;
20776;SDS011;10548;47.504;8.248;2022-09-21T09:12:22;10.07;;;2.50;;
20776;SDS011;10548;47.504;8.248;2022-09-21T09:17:56;9.20;;;2.13;;
20776;SDS011;10548;47.504;8.248;2022-09-21T09:20:37;8.10;;;2.50;;
20776;SDS011;10548;47.504;8.248;2022-09-21T09:23:10;5.07;;;1.80;;
20776;SDS011;10548;47.504;8.248;2022-09-21T09:25:40;8.23;;;2.10;;
20776;SDS011;10548;47.504;8.248;2022-09-21T09:28:20;6.03;;;1.90;;
20776;SDS011;10548;47.504;8.248;2022-09-21T09:30:53;6.90;;;2.10;;
20776;SDS011;10548;47.504;8.248;2022-09-21T09:33:23;7.10;;;2.20;;
20776;SDS011;10548;47.504;8.248;2022-09-21T09:35:56;7.83;;;2.70;;
20776;SDS011;10548;47.504;8.248;2022-09-21T09:38:49;11.17;;;3.43;;
20776;SDS011;10548;47.504;8.248;2022-09-21T09:41:24;17.27;;;2.70;;
20776;SDS011;10548;47.504;8.248;2022-09-21T09:44:12;23.87;;;4.80;;
20776;SDS011;10548;47.504;8.248;2022-09-21T09:49:53;10.63;;;2.87;;
20776;SDS011;10548;47.504;8.248;2022-09-21T09:52:19;7.57;;;2.23;;
20776;SDS011;10548;47.504;8.248;2022-09-21T09:54:47;5.87;;;1.90;;
20776;SDS011;10548;47.504;8.248;2022-09-21T09:57:15;8.57;;;2.53;;
20776;SDS011;10548;47.504;8.248;2022-09-21T09:59:47;9.40;;;2.50;;
20776;SDS011;10548;47.504;8.248;2022-09-21T10:02:21;8.60;;;2.10;;
20776;SDS011;10548;47.504;8.248;2022-09-21T10:05:02;5.57;;;2.13;;
20776;SDS011;10548;47.504;8.248;2022-09-21T10:07:35;4.40;;;1.87;;
20776;SDS011;10548;47.504;8.248;2022-09-21T10:12:50;7.83;;;1.80;;
20776;SDS011;10548;47.504;8.248;2022-09-21T10:15:18;5.63;;;2.03;;
20776;SDS011;10548;47.504;8.248;2022-09-21T10:17:46;4.53;;;2.10;;
20776;SDS011;10548;47.504;8.248;2022-09-21T10:20:15;5.93;;;2.23;;
20776;SDS011;10548;47.504;8.248;2022-09-21T10:22:44;9.80;;;2.03;;
20776;SDS011;10548;47.504;8.248;2022-09-21T10:25:15;7.53;;;2.20;;
20776;SDS011;10548;47.504;8.248;2022-09-21T10:27:45;10.63;;;2.00;;
20776;SDS011;10548;47.504;8.248;2022-09-21T10:30:31;2.83;;;1.70;;
20776;SDS011;10548;47.504;8.248;2022-09-21T10:32:59;5.90;;;1.80;;
20776;SDS011;10548;47.504;8.248;2022-09-21T10:35:27;3.50;;;1.57;;
20776;SDS011;10548;47.504;8.248;2022-09-21T10:38:08;4.10;;;1.70;;
20776;SDS011;10548;47.504;8.248;2022-09-21T10:40:36;5.33;;;1.50;;
20776;SDS011;10548;47.504;8.248;2022-09-21T10:43:04;3.77;;;1.57;;
20776;SDS011;10548;47.504;8.248;2022-09-21T10:45:33;3.67;;;1.43;;
20776;SDS011;10548;47.504;8.248;2022-09-21T10:48:15;7.97;;;1.83;;
20776;SDS011;10548;47.504;8.248;2022-09-21T10:50:44;6.43;;;1.87;;
20776;SDS011;10548;47.504;8.248;2022-09-21T10:53:25;3.47;;;1.43;;
20776;SDS011;10548;47.504;8.248;2022-09-21T10:56:00;3.97;;;1.50;;
20776;SDS011;10548;47.504;8.248;2022-09-21T11:01:30;4.90;;;1.50;;
20776;SDS011;10548;47.504;8.248;2022-09-21T11:04:05;2.83;;;1.50;;
20776;SDS011;10548;47.504;8.248;2022-09-21T11:06:45;2.70;;;1.30;;
20776;SDS011;10548;47.504;8.248;2022-09-21T11:09:15;5.17;;;1.40;;
20776;SDS011;10548;47.504;8.248;2022-09-21T11:11:50;8.40;;;1.73;;
20776;SDS011;10548;47.504;8.248;2022-09-21T11:14:42;3.47;;;1.50;;
20776;SDS011;10548;47.504;8.248;2022-09-21T11:26:00;5.87;;;1.37;;
20776;SDS011;10548;47.504;8.248;2022-09-21T11:28:32;4.40;;;1.73;;
20776;SDS011;10548;47.504;8.248;2022-09-21T11:39:46;12.13;;;2.00;;
20776;SDS011;10548;47.504;8.248;2022-09-21T11:42:40;3.13;;;1.40;;
20776;SDS011;10548;47.504;8.248;2022-09-21T11:45:12;4.30;;;1.40;;
20776;SDS011;10548;47.504;8.248;2022-09-21T11:47:52;4.07;;;1.30;;
20776;SDS011;10548;47.504;8.248;2022-09-21T11:50:26;5.77;;;1.60;;
20776;SDS011;10548;47.504;8.248;2022-09-21T11:53:06;2.50;;;1.40;;
20776;SDS011;10548;47.504;8.248;2022-09-21T11:56:01;5.33;;;1.40;;
20776;SDS011;10548;47.504;8.248;2022-09-21T11:59:12;9.37;;;1.67;;
20776;SDS011;10548;47.504;8.248;2022-09-21T12:04:41;34.50;;;2.43;;
20776;SDS011;10548;47.504;8.248;2022-09-21T12:16:31;3.37;;;1.30;;
20776;SDS011;10548;47.504;8.248;2022-09-21T12:18:35;24.87;;;3.40;;
20776;SDS011;10548;47.504;8.248;2022-09-21T12:21:24;3.43;;;1.17;;
20776;SDS011;10548;47.504;8.248;2022-09-21T12:23:54;2.33;;;1.00;;
20776;SDS011;10548;47.504;8.248;2022-09-21T12:26:26;54.43;;;3.70;;
20776;SDS011;10548;47.504;8.248;2022-09-21T12:28:56;5.50;;;1.60;;
20776;SDS011;10548;47.504;8.248;2022-09-21T12:31:31;8.60;;;1.30;;
20776;SDS011;10548;47.504;8.248;2022-09-21T12:34:11;3.33;;;1.17;;
20776;SDS011;10548;47.504;8.248;2022-09-21T12:39:46;5.10;;;1.57;;
20776;SDS011;10548;47.504;8.248;2022-09-21T12:42:25;6.30;;;1.50;;
20776;SDS011;10548;47.504;8.248;2022-09-21T12:44:56;6.80;;;1.30;;
20776;SDS011;10548;47.504;8.248;2022-09-21T12:47:31;4.53;;;1.33;;
20776;SDS011;10548;47.504;8.248;2022-09-21T12:50:05;3.27;;;1.20;;
20776;SDS011;10548;47.504;8.248;2022-09-21T12:52:34;1.93;;;1.10;;
20776;SDS011;10548;47.504;8.248;2022-09-21T12:57:54;4.83;;;1.20;;
20776;SDS011;10548;47.504;8.248;2022-09-21T13:01:17;7.67;;;1.43;;
20776;SDS011;10548;47.504;8.248;2022-09-21T13:06:29;5.63;;;1.43;;
20776;SDS011;10548;47.504;8.248;2022-09-21T13:09:03;2.57;;;1.27;;
20776;SDS011;10548;47.504;8.248;2022-09-21T13:11:36;8.60;;;1.50;;
20776;SDS011;10548;47.504;8.248;2022-09-21T13:14:15;13.00;;;1.30;;
20776;SDS011;10548;47.504;8.248;2022-09-21T13:16:43;3.17;;;1.20;;
20776;SDS011;10548;47.504;8.248;2022-09-21T13:19:22;21.63;;;2.97;;
20776;SDS011;10548;47.504;8.248;2022-09-21T13:22:09;22.40;;;3.27;;
20776;SDS011;10548;47.504;8.248;2022-09-21T13:24:39;7.40;;;1.53;;
20776;SDS011;10548;47.504;8.248;2022-09-21T13:27:13;10.07;;;1.90;;
20776;SDS011;10548;47.504;8.248;2022-09-21T13:29:41;3.13;;;1.23;;
20776;SDS011;10548;47.504;8.248;2022-09-21T13:32:20;3.10;;;0.98;;
20776;SDS011;10548;47.504;8.248;2022-09-21T13:34:48;3.80;;;0.98;;
20776;SDS011;10548;47.504;8.248;2022-09-21T13:37:24;15.90;;;2.35;;
20776;SDS011;10548;47.504;8.248;2022-09-21T13:42:51;8.10;;;1.52;;
20776;SDS011;10548;47.504;8.248;2022-09-21T13:48:18;51.90;;;6.95;;
20776;SDS011;10548;47.504;8.248;2022-09-21T13:50:54;6.88;;;1.23;;
20776;SDS011;10548;47.504;8.248;2022-09-21T13:53:24;44.88;;;4.95;;
20776;SDS011;10548;47.504;8.248;2022-09-21T13:56:05;5.43;;;1.30;;
20776;SDS011;10548;47.504;8.248;2022-09-21T13:58:41;13.93;;;2.00;;
20776;SDS011;10548;47.504;8.248;2022-09-21T14:01:21;29.05;;;2.10;;
20776;SDS011;10548;47.504;8.248;2022-09-21T14:04:23;5.70;;;1.10;;
20776;SDS011;10548;47.504;8.248;2022-09-21T14:06:53;7.85;;;1.80;;
20776;SDS011;10548;47.504;8.248;2022-09-21T14:09:26;7.07;;;1.27;;
20776;SDS011;10548;47.504;8.248;2022-09-21T14:12:01;9.45;;;1.63;;
20776;SDS011;10548;47.504;8.248;2022-09-21T14:14:32;3.13;;;1.20;;
20776;SDS011;10548;47.504;8.248;2022-09-21T14:20:00;11.98;;;2.38;;
20776;SDS011;10548;47.504;8.248;2022-09-21T14:22:32;3.17;;;0.82;;
20776;SDS011;10548;47.504;8.248;2022-09-21T14:25:22;3.00;;;1.10;;
20776;SDS011;10548;47.504;8.248;2022-09-21T14:27:52;3.10;;;1.00;;
20776;SDS011;10548;47.504;8.248;2022-09-21T14:30:24;4.20;;;1.30;;
20776;SDS011;10548;47.504;8.248;2022-09-21T14:35:51;3.38;;;1.23;;
20776;SDS011;10548;47.504;8.248;2022-09-21T14:38:24;9.90;;;1.73;;
20776;SDS011;10548;47.504;8.248;2022-09-21T14:41:02;1.98;;;0.70;;
20776;SDS011;10548;47.504;8.248;2022-09-21T14:43:33;8.93;;;1.70;;
20776;SDS011;10548;47.504;8.248;2022-09-21T14:49:16;5.70;;;1.10;;
20776;SDS011;10548;47.504;8.248;2022-09-21T14:52:19;4.00;;;1.10;;
20776;SDS011;10548;47.504;8.248;2022-09-21T14:56:26;3.08;;;1.15;;
20776;SDS011;10548;47.504;8.248;2022-09-21T15:04:25;7.40;;;0.98;;
20776;SDS011;10548;47.504;8.248;2022-09-21T15:07:29;4.22;;;1.05;;
20776;SDS011;10548;47.504;8.248;2022-09-21T15:10:48;9.50;;;1.05;;
20776;SDS011;10548;47.504;8.248;2022-09-21T15:16:40;8.30;;;1.35;;
20776;SDS011;10548;47.504;8.248;2022-09-21T15:19:23;3.17;;;0.83;;
20776;SDS011;10548;47.504;8.248;2022-09-21T15:24:57;2.63;;;1.20;;
20776;SDS011;10548;47.504;8.248;2022-09-21T15:27:29;1.35;;;1.00;;
20776;SDS011;10548;47.504;8.248;2022-09-21T15:30:00;2.22;;;0.80;;
20776;SDS011;10548;47.504;8.248;2022-09-21T15:32:33;4.45;;;0.88;;
20776;SDS011;10548;47.504;8.248;2022-09-21T15:35:27;3.93;;;0.93;;
20776;SDS011;10548;47.504;8.248;2022-09-21T15:37:54;3.47;;;0.70;;
20776;SDS011;10548;47.504;8.248;2022-09-21T15:40:23;2.73;;;1.03;;
20776;SDS011;10548;47.504;8.248;2022-09-21T15:43:15;2.90;;;0.83;;
20776;SDS011;10548;47.504;8.248;2022-09-21T15:46:01;2.53;;;1.03;;
20776;SDS011;10548;47.504;8.248;2022-09-21T15:48:34;3.43;;;0.90;;
20776;SDS011;10548;47.504;8.248;2022-09-21T15:51:09;3.53;;;1.10;;
20776;SDS011;10548;47.504;8.248;2022-09-21T15:53:45;3.40;;;0.80;;
20776;SDS011;10548;47.504;8.248;2022-09-21T15:56:18;4.38;;;0.95;;
20776;SDS011;10548;47.504;8.248;2022-09-21T15:58:48;1.90;;;0.82;;
20776;SDS011;10548;47.504;8.248;2022-09-21T16:01:16;2.65;;;0.82;;
20776;SDS011;10548;47.504;8.248;2022-09-21T16:04:00;2.72;;;0.80;;
20776;SDS011;10548;47.504;8.248;2022-09-21T16:06:37;1.15;;;0.68;;
20776;SDS011;10548;47.504;8.248;2022-09-21T16:18:05;2.95;;;0.80;;
20776;SDS011;10548;47.504;8.248;2022-09-21T16:20:40;3.63;;;0.87;;
20776;SDS011;10548;47.504;8.248;2022-09-21T16:23:28;3.00;;;0.83;;
20776;SDS011;10548;47.504;8.248;2022-09-21T16:25:57;1.17;;;0.67;;
20776;SDS011;10548;47.504;8.248;2022-09-21T16:28:36;1.87;;;0.77;;
20776;SDS011;10548;47.504;8.248;2022-09-21T16:31:38;5.73;;;0.77;;
20776;SDS011;10548;47.504;8.248;2022-09-21T16:34:00;1.97;;;0.83;;
20776;SDS011;10548;47.504;8.248;2022-09-21T16:36:43;5.47;;;1.10;;
20776;SDS011;10548;47.504;8.248;2022-09-21T16:39:11;3.87;;;0.70;;
20776;SDS011;10548;47.504;8.248;2022-09-21T16:41:54;2.07;;;0.80;;
20776;SDS011;10548;47.504;8.248;2022-09-21T16:44:26;2.40;;;0.60;;
20776;SDS011;10548;47.504;8.248;2022-09-21T16:46:57;2.27;;;0.80;;
20776;SDS011;10548;47.504;8.248;2022-09-21T16:49:30;3.80;;;0.67;;
20776;SDS011;10548;47.504;8.248;2022-09-21T16:52:00;2.00;;;0.60;;
20776;SDS011;10548;47.504;8.248;2022-09-21T16:54:28;1.50;;;0.67;;
20776;SDS011;10548;47.504;8.248;2022-09-21T16:56:57;6.83;;;1.40;;
20776;SDS011;10548;47.504;8.248;2022-09-21T16:59:25;1.30;;;0.70;;
20776;SDS011;10548;47.504;8.248;2022-09-21T17:01:53;1.27;;;0.70;;
20776;SDS011;10548;47.504;8.248;2022-09-21T17:04:23;3.03;;;0.90;;
20776;SDS011;10548;47.504;8.248;2022-09-21T17:06:53;5.43;;;0.90;;
20776;SDS011;10548;47.504;8.248;2022-09-21T17:09:26;2.17;;;0.90;;
20776;SDS011;10548;47.504;8.248;2022-09-21T17:11:57;1.93;;;0.80;;
20776;SDS011;10548;47.504;8.248;2022-09-21T17:14:30;0.90;;;0.60;;
20776;SDS011;10548;47.504;8.248;2022-09-21T17:17:04;2.90;;;1.00;;
20776;SDS011;10548;47.504;8.248;2022-09-21T17:19:38;6.43;;;0.90;;